createdAt,value
2022-07-26T00:00:09.726Z,1
2022-07-26T00:02:02.489Z,1
2022-07-26T00:03:59.846Z,1
2022-07-26T00:06:06.306Z,1
2022-07-26T00:08:02.835Z,1
2022-07-26T00:10:04.984Z,1
2022-07-26T00:12:03.070Z,1
2022-07-26T00:14:02.847Z,1
2022-07-26T00:16:02.665Z,1
2022-07-26T00:18:02.746Z,1
2022-07-26T00:20:09.343Z,1
2022-07-26T00:22:02.256Z,1
2022-07-26T00:24:07.123Z,1
2022-07-26T00:28:02.749Z,1
2022-07-26T00:30:06.129Z,1
2022-07-26T00:32:02.711Z,1
2022-07-26T00:34:02.577Z,1
2022-07-26T00:36:05.726Z,1
2022-07-26T00:38:02.519Z,1
2022-07-26T00:40:05.899Z,1
2022-07-26T00:42:02.402Z,1
2022-07-26T00:44:02.689Z,1
2022-07-26T00:46:05.948Z,1
2022-07-26T00:48:02.545Z,1
2022-07-26T00:50:02.742Z,1
2022-07-26T00:54:06.226Z,1
2022-07-26T00:56:02.813Z,1
2022-07-26T00:58:03.840Z,1
2022-07-26T01:00:03.247Z,1
2022-07-26T01:02:09.522Z,1
2022-07-26T01:04:02.702Z,1
2022-07-26T01:06:10.123Z,1
2022-07-26T01:08:02.610Z,1
2022-07-26T01:10:06.433Z,1
2022-07-26T01:12:02.204Z,1
2022-07-26T01:14:02.829Z,1
2022-07-26T01:16:02.876Z,1
2022-07-26T01:17:59.850Z,1
2022-07-26T01:20:05.146Z,1
2022-07-26T01:24:06.278Z,1
2022-07-26T01:26:02.775Z,1
2022-07-26T01:28:02.663Z,1
2022-07-26T01:30:03.359Z,1
2022-07-26T01:34:02.638Z,1
2022-07-26T01:36:02.923Z,1
2022-07-26T01:38:04.363Z,1
2022-07-26T01:40:02.781Z,1
2022-07-26T01:42:02.416Z,1
2022-07-26T01:44:09.043Z,1
2022-07-26T01:46:02.819Z,1
2022-07-26T01:48:05.749Z,1
2022-07-26T01:50:03.050Z,1
2022-07-26T01:52:02.296Z,1
2022-07-26T01:54:06.516Z,1
2022-07-26T01:56:02.826Z,1
2022-07-26T01:58:10.227Z,1
2022-07-26T02:00:02.749Z,1
2022-07-26T02:02:02.661Z,1
2022-07-26T02:04:06.150Z,1
2022-07-26T02:06:02.817Z,1
2022-07-26T02:08:02.978Z,1
2022-07-26T02:10:07.013Z,1
2022-07-26T02:12:03.284Z,1
2022-07-26T02:14:02.598Z,1
2022-07-26T02:16:02.844Z,1
2022-07-26T02:18:02.796Z,1
2022-07-26T02:20:06.996Z,1
2022-07-26T02:22:02.642Z,1
2022-07-26T02:24:03.341Z,1
2022-07-26T02:26:06.590Z,1
2022-07-26T02:28:02.895Z,1
2022-07-26T02:30:02.660Z,1
2022-07-26T02:32:02.474Z,1
2022-07-26T02:34:04.723Z,1
2022-07-26T02:38:06.046Z,1
2022-07-26T02:40:02.904Z,1
2022-07-26T02:42:06.420Z,1
2022-07-26T02:44:03.028Z,1
2022-07-26T02:46:03.546Z,1
2022-07-26T02:48:06.347Z,1
2022-07-26T02:50:02.884Z,1
2022-07-26T02:54:03.054Z,0
2022-07-26T02:56:05.922Z,0
2022-07-26T02:58:09.406Z,0
2022-07-26T03:00:06.688Z,0
2022-07-26T03:02:06.869Z,0.1
2022-07-26T03:06:05.686Z,0.2
2022-07-26T03:08:02.847Z,0.3
2022-07-26T03:10:02.707Z,0.3
2022-07-26T03:12:06.344Z,0.5
2022-07-26T03:14:02.988Z,0.6
2022-07-26T03:16:02.867Z,0.8
2022-07-26T03:18:02.743Z,1.1
2022-07-26T03:20:02.720Z,1.2
2022-07-26T03:22:02.295Z,1.4
2022-07-26T03:24:02.968Z,1.9
2022-07-26T03:26:02.894Z,2.5
2022-07-26T03:28:02.761Z,3
2022-07-26T03:30:03.108Z,3.9
2022-07-26T03:32:06.279Z,5
2022-07-26T03:34:03.473Z,6.4
2022-07-26T03:36:02.874Z,8.2
2022-07-26T03:38:02.852Z,11
2022-07-26T03:40:02.844Z,14.2
2022-07-26T03:42:03.571Z,18.2
2022-07-26T03:44:02.988Z,21.1
2022-07-26T03:46:02.893Z,25.8
2022-07-26T03:48:03.872Z,30
2022-07-26T03:50:02.928Z,33.1
2022-07-26T03:52:06.216Z,31.5
2022-07-26T03:54:02.902Z,30
2022-07-26T03:56:02.938Z,28.5
2022-07-26T03:58:05.844Z,30
2022-07-26T04:00:03.407Z,40.4
2022-07-26T04:02:02.874Z,60.3
2022-07-26T04:06:02.981Z,99.5
2022-07-26T04:08:05.930Z,115.6
2022-07-26T04:10:04.363Z,127.7
2022-07-26T04:12:02.948Z,134.3
2022-07-26T04:14:09.683Z,141.2
2022-07-26T04:16:02.631Z,134.3
2022-07-26T04:18:06.184Z,127.7
2022-07-26T04:20:06.148Z,134.3
2022-07-26T04:22:02.320Z,156
2022-07-26T04:24:02.858Z,181.3
2022-07-26T04:26:08.506Z,221.4
2022-07-26T04:28:02.822Z,257.2
2022-07-26T04:30:08.508Z,298.9
2022-07-26T04:32:02.385Z,347.2
2022-07-26T04:34:02.846Z,424.1
2022-07-26T04:36:02.815Z,468.7
2022-07-26T04:38:03.591Z,468.7
2022-07-26T04:40:06.113Z,445.9
2022-07-26T04:42:03.488Z,445.9
2022-07-26T04:44:02.573Z,424.1
2022-07-26T04:46:06.906Z,383.8
2022-07-26T04:48:02.809Z,330.3
2022-07-26T04:50:02.926Z,270.4
2022-07-26T04:52:02.385Z,232.8
2022-07-26T04:54:03.008Z,232.8
2022-07-26T04:56:02.806Z,244.7
2022-07-26T04:58:02.824Z,330.3
2022-07-26T05:00:20.611Z,468.7
2022-07-26T05:02:02.464Z,518
2022-07-26T05:04:02.866Z,445.9
2022-07-26T05:06:02.567Z,445.9
2022-07-26T05:08:03.080Z,518
2022-07-26T05:10:02.736Z,572.5
2022-07-26T05:12:03.007Z,699.2
2022-07-26T05:14:06.336Z,854.1
2022-07-26T05:16:02.725Z,897.8
2022-07-26T05:18:06.891Z,943.9
2022-07-26T05:20:03.535Z,1152.9
2022-07-26T05:24:03.033Z,1408.1
2022-07-26T05:26:02.678Z,1480.3
2022-07-26T05:28:09.043Z,1408.1
2022-07-26T05:30:05.760Z,1339.4
2022-07-26T05:32:02.408Z,1096.6
2022-07-26T05:36:02.714Z,812.4
2022-07-26T05:38:06.485Z,735.1
2022-07-26T05:40:02.697Z,632.7
2022-07-26T05:42:03.058Z,492.7
2022-07-26T05:44:02.573Z,383.8
2022-07-26T05:46:04.457Z,403.4
2022-07-26T05:48:02.932Z,544.6
2022-07-26T05:50:06.211Z,772.8
2022-07-26T05:52:02.394Z,943.9
2022-07-26T05:54:02.940Z,1096.6
2022-07-26T05:55:59.902Z,1096.6
2022-07-26T05:58:06.057Z,943.9
2022-07-26T06:00:02.909Z,854.1
2022-07-26T06:02:02.453Z,943.9
2022-07-26T06:04:02.817Z,1152.9
2022-07-26T06:06:02.632Z,1274.1
2022-07-26T06:08:03.590Z,1274.1
2022-07-26T06:10:02.848Z,1274.1
2022-07-26T06:12:09.867Z,1096.6
2022-07-26T06:14:02.949Z,897.8
2022-07-26T06:16:02.571Z,699.2
2022-07-26T06:18:02.827Z,572.5
2022-07-26T06:20:06.386Z,572.5
2022-07-26T06:22:02.585Z,572.5
2022-07-26T06:24:06.280Z,518
2022-07-26T06:26:02.599Z,492.7
2022-07-26T06:28:04.018Z,518
2022-07-26T06:32:03.124Z,1043.1
2022-07-26T06:34:07.815Z,1808
2022-07-26T06:36:02.856Z,2321.6
2022-07-26T06:38:06.051Z,2697.3
2022-07-26T06:40:02.797Z,2835.6
2022-07-26T06:42:02.966Z,2835.6
2022-07-26T06:44:04.146Z,3294.5
2022-07-26T06:46:02.913Z,3641
2022-07-26T06:48:02.621Z,3827.6
2022-07-26T06:50:02.821Z,4023.9
2022-07-26T06:52:05.844Z,4447.1
2022-07-26T06:54:02.803Z,4914.8
2022-07-26T06:56:02.700Z,4914.8
2022-07-26T06:58:06.807Z,4230.2
2022-07-26T07:00:02.967Z,3827.6
2022-07-26T07:02:02.480Z,3827.6
2022-07-26T07:04:06.041Z,4230.2
2022-07-26T07:06:02.630Z,5431.7
2022-07-26T07:08:02.673Z,5710.1
2022-07-26T07:10:02.718Z,6002.9
2022-07-26T07:12:09.585Z,6002.9
2022-07-26T07:14:06.708Z,5710.1
2022-07-26T07:16:03.125Z,5710.1
2022-07-26T07:18:02.675Z,5710.1
2022-07-26T07:20:09.442Z,5431.7
2022-07-26T07:22:02.393Z,5431.7
2022-07-26T07:24:02.736Z,5166.8
2022-07-26T07:28:06.497Z,6310.7
2022-07-26T07:30:03.072Z,6310.7
2022-07-26T07:32:03.317Z,6002.9
2022-07-26T07:34:10.127Z,6310.7
2022-07-26T07:36:06.168Z,7707.9
2022-07-26T07:38:02.780Z,8518.5
2022-07-26T07:40:09.948Z,7707.9
2022-07-26T07:42:02.386Z,7332
2022-07-26T07:44:02.789Z,8103.1
2022-07-26T07:46:02.654Z,7707.9
2022-07-26T07:48:04.205Z,7707.9
2022-07-26T07:50:02.719Z,7332
2022-07-26T07:52:09.614Z,6974.4
2022-07-26T07:54:06.601Z,7332
2022-07-26T07:56:06.671Z,7332
2022-07-26T07:58:06.233Z,8955.3
2022-07-26T08:02:09.465Z,9897.1
2022-07-26T08:04:06.319Z,8518.5
2022-07-26T08:06:02.928Z,6634.2
2022-07-26T08:08:02.810Z,7707.9
2022-07-26T08:10:07.316Z,8518.5
2022-07-26T08:12:06.365Z,8518.5
2022-07-26T08:14:03.090Z,8103.1
2022-07-26T08:16:09.431Z,8518.5
2022-07-26T08:18:03.065Z,8955.3
2022-07-26T08:20:12.918Z,8518.5
2022-07-26T08:22:02.823Z,8518.5
2022-07-26T08:24:02.621Z,9897.1
2022-07-26T08:26:06.419Z,8518.5
2022-07-26T08:30:02.899Z,9414.4
2022-07-26T08:32:10.242Z,9897.1
2022-07-26T08:34:02.834Z,10938
2022-07-26T08:36:03.092Z,12088.4
2022-07-26T08:38:04.184Z,11498.8
2022-07-26T08:40:02.875Z,11498.8
2022-07-26T08:42:02.379Z,11498.8
2022-07-26T08:44:06.897Z,11498.8
2022-07-26T08:46:03.216Z,8955.3
2022-07-26T08:48:18.269Z,6974.4
2022-07-26T08:50:06.204Z,5710.1
2022-07-26T08:52:06.576Z,5166.8
2022-07-26T08:54:05.561Z,4675.1
2022-07-26T08:56:07.143Z,4447.1
2022-07-26T08:58:02.991Z,4914.8
2022-07-26T09:00:05.982Z,8518.5
2022-07-26T09:02:03.266Z,8955.3
2022-07-26T09:04:08.691Z,7332
2022-07-26T09:06:02.843Z,9897.1
2022-07-26T09:08:09.427Z,10938
2022-07-26T09:10:02.725Z,10938
2022-07-26T09:12:03.401Z,10404.6
2022-07-26T09:14:11.602Z,10404.6
2022-07-26T09:16:03.013Z,7707.9
2022-07-26T09:18:03.155Z,8103.1
2022-07-26T09:20:02.524Z,8518.5
2022-07-26T09:22:06.026Z,9414.4
2022-07-26T09:24:02.845Z,8955.3
2022-07-26T09:26:11.796Z,8955.3
2022-07-26T09:28:05.965Z,8518.5
2022-07-26T09:30:03.002Z,8103.1
2022-07-26T09:32:02.640Z,5431.7
2022-07-26T09:34:06.157Z,4447.1
2022-07-26T09:36:03.014Z,4230.2
2022-07-26T09:38:07.443Z,4447.1
2022-07-26T09:40:02.848Z,5710.1
2022-07-26T09:42:25.374Z,5166.8
2022-07-26T09:44:06.265Z,4023.9
2022-07-26T09:46:06.409Z,3294.5
2022-07-26T09:48:06.370Z,2981
2022-07-26T09:50:09.307Z,2981
2022-07-26T09:52:03.403Z,3133.8
2022-07-26T09:54:02.809Z,3294.5
2022-07-26T09:56:06.285Z,3463.4
2022-07-26T09:58:06.121Z,4023.9
2022-07-26T10:00:03.270Z,4447.1
2022-07-26T10:02:12.485Z,5166.8
2022-07-26T10:04:02.786Z,6310.7
2022-07-26T10:06:02.730Z,7332
2022-07-26T10:08:03.862Z,8518.5
2022-07-26T10:10:02.851Z,11498.8
2022-07-26T10:12:05.849Z,10404.6
2022-07-26T10:14:03.008Z,9414.4
2022-07-26T10:16:03.017Z,9414.4
2022-07-26T10:18:02.700Z,9414.4
2022-07-26T10:20:02.870Z,9897.1
2022-07-26T10:22:02.674Z,9897.1
2022-07-26T10:24:02.796Z,8103.1
2022-07-26T10:26:03.035Z,7707.9
2022-07-26T10:28:02.866Z,6634.2
2022-07-26T10:30:02.979Z,9414.4
2022-07-26T10:34:06.373Z,9414.4
2022-07-26T10:38:02.973Z,10938
2022-07-26T10:40:02.494Z,11498.8
2022-07-26T10:42:02.624Z,11498.8
2022-07-26T10:44:09.668Z,11498.8
2022-07-26T10:46:05.950Z,12708.2
2022-07-26T10:48:09.828Z,9897.1
2022-07-26T10:50:06.286Z,10404.6
2022-07-26T10:52:03.200Z,12088.4
2022-07-26T10:53:59.972Z,8955.3
2022-07-26T10:56:11.376Z,9414.4
2022-07-26T10:58:06.454Z,8518.5
2022-07-26T11:00:02.671Z,8103.1
2022-07-26T11:02:03.831Z,7707.9
2022-07-26T11:04:06.405Z,8103.1
2022-07-26T11:06:03.104Z,8103.1
2022-07-26T11:08:02.824Z,10404.6
2022-07-26T11:10:05.418Z,11498.8
2022-07-26T11:12:06.285Z,12088.4
2022-07-26T11:14:05.959Z,9897.1
2022-07-26T11:16:05.970Z,9897.1
2022-07-26T11:18:03.162Z,9414.4
2022-07-26T11:20:05.974Z,9414.4
2022-07-26T11:22:04.895Z,8518.5
2022-07-26T11:24:02.807Z,12088.4
2022-07-26T11:26:02.644Z,12088.4
2022-07-26T11:28:02.782Z,12088.4
2022-07-26T11:30:03.273Z,12708.2
2022-07-26T11:32:14.475Z,9414.4
2022-07-26T11:34:02.975Z,8518.5
2022-07-26T11:36:02.765Z,7707.9
2022-07-26T11:38:11.666Z,10404.6
2022-07-26T11:40:02.533Z,7332
2022-07-26T11:42:03.121Z,9897.1
2022-07-26T11:44:02.881Z,9414.4
2022-07-26T11:46:03.763Z,8518.5
2022-07-26T11:48:02.832Z,8103.1
2022-07-26T11:50:14.231Z,8103.1
2022-07-26T11:52:03.073Z,8518.5
2022-07-26T11:54:02.874Z,6310.7
2022-07-26T11:56:06.264Z,6974.4
2022-07-26T11:58:02.938Z,7332
2022-07-26T12:00:02.840Z,6974.4
2022-07-26T12:02:03.298Z,9897.1
2022-07-26T12:04:06.397Z,10404.6
2022-07-26T12:06:02.781Z,10938
2022-07-26T12:08:05.795Z,10938
2022-07-26T12:10:03.693Z,10404.6
2022-07-26T12:12:02.954Z,8955.3
2022-07-26T12:14:02.915Z,12708.2
2022-07-26T12:16:02.899Z,13359.7
2022-07-26T12:18:02.848Z,12708.2
2022-07-26T12:20:03.836Z,12088.4
2022-07-26T12:22:02.802Z,9414.4
2022-07-26T12:24:05.978Z,7332
2022-07-26T12:26:09.860Z,8103.1
2022-07-26T12:28:02.759Z,6974.4
2022-07-26T12:30:03.658Z,8955.3
2022-07-26T12:34:02.913Z,7707.9
2022-07-26T12:36:03.682Z,10938
2022-07-26T12:40:07.007Z,7707.9
2022-07-26T12:42:02.775Z,7707.9
2022-07-26T12:44:06.121Z,7707.9
2022-07-26T12:46:03.101Z,8518.5
2022-07-26T12:50:02.953Z,10404.6
2022-07-26T12:52:02.854Z,9414.4
2022-07-26T12:54:02.979Z,9414.4
2022-07-26T12:56:06.636Z,9414.4
2022-07-26T12:58:00.007Z,8955.3
2022-07-26T13:00:07.283Z,9897.1
2022-07-26T13:02:02.799Z,9897.1
2022-07-26T13:04:06.562Z,9897.1
2022-07-26T13:06:03.006Z,8518.5
2022-07-26T13:08:02.821Z,7707.9
2022-07-26T13:10:31.546Z,7707.9
2022-07-26T13:12:02.500Z,7332
2022-07-26T13:14:05.680Z,10938
2022-07-26T13:16:05.528Z,8955.3
2022-07-26T13:18:03.979Z,8103.1
2022-07-26T13:20:03.422Z,11498.8
2022-07-26T13:22:07.131Z,11498.8
2022-07-26T13:24:02.841Z,8103.1
2022-07-26T13:26:09.552Z,10404.6
2022-07-26T13:27:59.990Z,7707.9
2022-07-26T13:30:04.431Z,8103.1
2022-07-26T13:32:02.575Z,8103.1
2022-07-26T13:34:06.236Z,8518.5
2022-07-26T13:36:06.056Z,8518.5
2022-07-26T13:38:03.028Z,8518.5
2022-07-26T13:40:04.272Z,8518.5
2022-07-26T13:42:09.049Z,12088.4
2022-07-26T13:44:06.299Z,11498.8
2022-07-26T13:46:03.086Z,9897.1
2022-07-26T13:48:09.855Z,8955.3
2022-07-26T13:50:06.585Z,8518.5
2022-07-26T13:52:02.759Z,9897.1
2022-07-26T13:54:02.932Z,6634.2
2022-07-26T13:56:06.242Z,6634.2
2022-07-26T13:58:09.646Z,7707.9
2022-07-26T14:00:02.589Z,10404.6
2022-07-26T14:02:03.063Z,8955.3
2022-07-26T14:04:03.223Z,12088.4
2022-07-26T14:06:04.492Z,8518.5
2022-07-26T14:08:06.214Z,7707.9
2022-07-26T14:10:00.045Z,7707.9
2022-07-26T14:12:03.064Z,6974.4
2022-07-26T14:14:09.839Z,6310.7
2022-07-26T14:16:02.713Z,5710.1
2022-07-26T14:18:09.502Z,5710.1
2022-07-26T14:20:02.815Z,5710.1
2022-07-26T14:24:03.070Z,6002.9
2022-07-26T14:26:06.314Z,6310.7
2022-07-26T14:28:06.392Z,6310.7
2022-07-26T14:30:03.769Z,6974.4
2022-07-26T14:32:06.201Z,6310.7
2022-07-26T14:34:09.844Z,6974.4
2022-07-26T14:36:02.751Z,6634.2
2022-07-26T14:38:02.873Z,6310.7
2022-07-26T14:40:02.675Z,5710.1
2022-07-26T14:42:03.296Z,5431.7
2022-07-26T14:44:02.879Z,5431.7
2022-07-26T14:46:02.974Z,8955.3
2022-07-26T14:48:10.447Z,5431.7
2022-07-26T14:50:06.710Z,5431.7
2022-07-26T14:52:07.747Z,6974.4
2022-07-26T14:54:02.539Z,6310.7
2022-07-26T14:56:09.475Z,9414.4
2022-07-26T14:58:02.684Z,9414.4
2022-07-26T15:00:03.126Z,8955.3
2022-07-26T15:02:06.406Z,8955.3
2022-07-26T15:04:06.157Z,7707.9
2022-07-26T15:06:03.254Z,6002.9
2022-07-26T15:08:06.083Z,8518.5
2022-07-26T15:10:03.168Z,8518.5
2022-07-26T15:12:06.162Z,6002.9
2022-07-26T15:14:05.973Z,8103.1
2022-07-26T15:16:06.195Z,5710.1
2022-07-26T15:18:03.277Z,8103.1
2022-07-26T15:20:02.851Z,4675.1
2022-07-26T15:22:10.511Z,4230.2
2022-07-26T15:24:06.138Z,7332
2022-07-26T15:26:02.572Z,7332
2022-07-26T15:28:02.835Z,4914.8
2022-07-26T15:32:02.972Z,8103.1
2022-07-26T15:34:05.998Z,7707.9
2022-07-26T15:36:05.797Z,7707.9
2022-07-26T15:38:09.517Z,7707.9
2022-07-26T15:40:06.277Z,7332
2022-07-26T15:42:07.459Z,7332
2022-07-26T15:44:06.390Z,6974.4
2022-07-26T15:46:03.105Z,6974.4
2022-07-26T15:48:14.826Z,6634.2
2022-07-26T15:50:03.096Z,4023.9
2022-07-26T15:52:02.807Z,4675.1
2022-07-26T15:54:06.393Z,4023.9
2022-07-26T15:56:06.415Z,4230.2
2022-07-26T15:58:02.561Z,5710.1
2022-07-26T16:00:11.357Z,6974.4
2022-07-26T16:02:03.269Z,6974.4
2022-07-26T16:04:09.809Z,6974.4
2022-07-26T16:06:06.227Z,6634.2
2022-07-26T16:08:02.725Z,4023.9
2022-07-26T16:10:02.972Z,6002.9
2022-07-26T16:12:06.033Z,6634.2
2022-07-26T16:14:10.103Z,6310.7
2022-07-26T16:16:03.044Z,6310.7
2022-07-26T16:18:06.738Z,6002.9
2022-07-26T16:20:02.809Z,6002.9
2022-07-26T16:22:06.073Z,5710.1
2022-07-26T16:24:06.619Z,5710.1
2022-07-26T16:26:03.805Z,5710.1
2022-07-26T16:28:03.145Z,3294.5
2022-07-26T16:32:03.047Z,4914.8
2022-07-26T16:34:02.902Z,4914.8
2022-07-26T16:36:06.265Z,4675.1
2022-07-26T16:38:03.119Z,4914.8
2022-07-26T16:40:02.784Z,4914.8
2022-07-26T16:42:06.710Z,4914.8
2022-07-26T16:44:10.218Z,4914.8
2022-07-26T16:46:03.010Z,5166.8
2022-07-26T16:48:03.104Z,5166.8
2022-07-26T16:50:02.952Z,4914.8
2022-07-26T16:52:07.765Z,4447.1
2022-07-26T16:54:03.055Z,4230.2
2022-07-26T16:56:02.918Z,4023.9
2022-07-26T16:58:06.649Z,4230.2
2022-07-26T17:00:02.979Z,4230.2
2022-07-26T17:02:03.995Z,4230.2
2022-07-26T17:04:02.709Z,4023.9
2022-07-26T17:06:06.211Z,4230.2
2022-07-26T17:08:02.663Z,4230.2
2022-07-26T17:10:03.175Z,4230.2
2022-07-26T17:12:06.346Z,2697.3
2022-07-26T17:14:02.944Z,2565.7
2022-07-26T17:16:09.158Z,4023.9
2022-07-26T17:18:06.683Z,3827.6
2022-07-26T17:20:02.939Z,3641
2022-07-26T17:22:02.920Z,2208.3
2022-07-26T17:24:06.150Z,2565.7
2022-07-26T17:26:09.515Z,3294.5
2022-07-26T17:28:06.639Z,3133.8
2022-07-26T17:30:07.343Z,2981
2022-07-26T17:32:02.984Z,2835.6
2022-07-26T17:34:06.345Z,2835.6
2022-07-26T17:36:08.595Z,1900.7
2022-07-26T17:38:02.561Z,1556.2
2022-07-26T17:40:04.107Z,1480.3
2022-07-26T17:42:05.984Z,1408.1
2022-07-26T17:44:03.346Z,1339.4
2022-07-26T17:46:06.756Z,1339.4
2022-07-26T17:48:06.017Z,1408.1
2022-07-26T17:52:06.692Z,1152.9
2022-07-26T17:54:06.444Z,1043.1
2022-07-26T17:56:08.993Z,1043.1
2022-07-26T17:58:03.166Z,1152.9
2022-07-26T18:00:07.078Z,1152.9
2022-07-26T18:02:03.021Z,1152.9
2022-07-26T18:04:02.980Z,1096.6
2022-07-26T18:06:02.922Z,1043.1
2022-07-26T18:08:02.743Z,943.9
2022-07-26T18:10:03.118Z,897.8
2022-07-26T18:12:02.992Z,735.1
2022-07-26T18:14:03.021Z,665.1
2022-07-26T18:16:06.304Z,632.7
2022-07-26T18:18:03.064Z,601.8
2022-07-26T18:20:06.460Z,572.5
2022-07-26T18:22:05.862Z,572.5
2022-07-26T18:24:16.641Z,572.5
2022-07-26T18:26:06.412Z,518
2022-07-26T18:28:06.790Z,492.7
2022-07-26T18:30:02.887Z,445.9
2022-07-26T18:32:10.191Z,424.1
2022-07-26T18:34:06.042Z,383.8
2022-07-26T18:36:02.868Z,347.2
2022-07-26T18:38:06.070Z,314.2
2022-07-26T18:40:03.193Z,284.3
2022-07-26T18:44:06.047Z,244.7
2022-07-26T18:46:05.914Z,232.8
2022-07-26T18:48:02.991Z,210.6
2022-07-26T18:50:00.169Z,190.6
2022-07-26T18:52:06.064Z,164
2022-07-26T18:54:03.239Z,148.4
2022-07-26T18:56:02.845Z,127.7
2022-07-26T18:58:08.536Z,104.6
2022-07-26T19:00:02.944Z,81.5
2022-07-26T19:02:02.962Z,66.7
2022-07-26T19:04:06.677Z,54.6
2022-07-26T19:06:07.733Z,42.5
2022-07-26T19:08:09.236Z,34.8
2022-07-26T19:10:02.990Z,28.5
2022-07-26T19:12:06.257Z,22.2
2022-07-26T19:14:03.041Z,18.2
2022-07-26T19:16:02.792Z,13.5
2022-07-26T19:18:06.544Z,10
2022-07-26T19:20:02.845Z,7.8
2022-07-26T19:22:02.883Z,6
2022-07-26T19:24:06.624Z,4.5
2022-07-26T19:26:03.271Z,3.5
2022-07-26T19:28:04.504Z,2.7
2022-07-26T19:30:06.517Z,2
2022-07-26T19:32:02.836Z,1.6
2022-07-26T19:34:03.240Z,1.2
2022-07-26T19:36:06.546Z,0.8
2022-07-26T19:38:02.984Z,0.6
2022-07-26T19:40:03.311Z,0.4
2022-07-26T19:42:04.167Z,0.3
2022-07-26T19:44:09.683Z,0.2
2022-07-26T19:46:03.005Z,0.2
2022-07-26T19:48:02.752Z,0.2
2022-07-26T19:50:03.455Z,0.1
2022-07-26T19:52:02.869Z,0.1
2022-07-26T19:54:10.154Z,0
2022-07-26T19:56:03.615Z,0
2022-07-26T19:58:02.759Z,0
2022-07-26T20:00:03.406Z,0
2022-07-26T20:02:02.931Z,0
2022-07-26T20:04:02.865Z,0
2022-07-26T20:06:06.244Z,1
2022-07-26T20:08:03.147Z,1
2022-07-26T20:10:03.038Z,1
2022-07-26T20:12:02.979Z,1
2022-07-26T20:14:02.987Z,1
2022-07-26T20:16:02.861Z,1
2022-07-26T20:18:02.854Z,1
2022-07-26T20:22:05.952Z,1
2022-07-26T20:24:02.838Z,1
2022-07-26T20:26:03.010Z,1
2022-07-26T20:28:02.843Z,1
2022-07-26T20:30:06.503Z,1
2022-07-26T20:32:02.826Z,1
2022-07-26T20:34:04.114Z,1
2022-07-26T20:36:03.098Z,1
2022-07-26T20:38:04.329Z,1
2022-07-26T20:40:03.040Z,1
2022-07-26T20:42:02.901Z,1
2022-07-26T20:44:04.362Z,1
2022-07-26T20:46:02.880Z,1
2022-07-26T20:48:02.759Z,1
2022-07-26T20:50:03.526Z,1
2022-07-26T20:52:13.905Z,1
2022-07-26T20:54:06.363Z,1
2022-07-26T20:56:06.253Z,1
2022-07-26T20:58:03.175Z,1
2022-07-26T21:00:05.801Z,1
2022-07-26T21:02:03.121Z,1
2022-07-26T21:04:02.801Z,1
2022-07-26T21:06:03.062Z,1
2022-07-26T21:08:10.965Z,1
2022-07-26T21:10:02.988Z,1
2022-07-26T21:12:06.358Z,1
2022-07-26T21:14:06.593Z,1
2022-07-26T21:16:03.231Z,1
2022-07-26T21:18:12.282Z,1
2022-07-26T21:20:06.060Z,1
2022-07-26T21:22:09.699Z,1
2022-07-26T21:24:06.323Z,1
2022-07-26T21:26:02.780Z,1
2022-07-26T21:28:02.926Z,1
2022-07-26T21:30:07.415Z,1
2022-07-26T21:32:02.981Z,1
2022-07-26T21:36:02.870Z,1
2022-07-26T21:38:05.988Z,1
2022-07-26T21:40:03.063Z,1
2022-07-26T21:42:03.055Z,1
2022-07-26T21:44:04.265Z,1
2022-07-26T21:46:03.102Z,1
2022-07-26T21:48:05.634Z,1
2022-07-26T21:50:03.176Z,1
2022-07-26T21:52:06.952Z,1
2022-07-26T21:54:03.017Z,1
2022-07-26T21:56:02.887Z,1
2022-07-26T21:58:06.799Z,1
2022-07-26T22:00:03.752Z,1
2022-07-26T22:02:10.441Z,1
2022-07-26T22:04:06.277Z,1
2022-07-26T22:06:06.484Z,1
2022-07-26T22:08:06.038Z,1
2022-07-26T22:10:03.091Z,1
2022-07-26T22:12:10.527Z,1
2022-07-26T22:14:02.945Z,1
2022-07-26T22:16:03.000Z,1
2022-07-26T22:18:03.065Z,1
2022-07-26T22:20:02.985Z,1
2022-07-26T22:22:04.543Z,1
2022-07-26T22:24:06.075Z,1
2022-07-26T22:26:06.454Z,1
2022-07-26T22:28:02.950Z,1
2022-07-26T22:30:06.800Z,1
2022-07-26T22:32:03.001Z,1
2022-07-26T22:34:14.259Z,1
2022-07-26T22:36:03.291Z,1
2022-07-26T22:38:03.218Z,1
2022-07-26T22:40:02.966Z,1
2022-07-26T22:42:15.567Z,1
2022-07-26T22:44:03.544Z,1
2022-07-26T22:48:09.187Z,1
2022-07-26T22:50:02.908Z,1
2022-07-26T22:52:11.519Z,1
2022-07-26T22:54:03.050Z,1
2022-07-26T22:56:04.067Z,1
2022-07-26T22:58:03.021Z,1
2022-07-26T23:00:03.154Z,1
2022-07-26T23:02:06.605Z,1
2022-07-26T23:04:03.175Z,1
2022-07-26T23:06:03.021Z,1
2022-07-26T23:08:03.909Z,1
2022-07-26T23:10:06.851Z,1
2022-07-26T23:12:02.631Z,1
2022-07-26T23:14:03.001Z,1
2022-07-26T23:16:06.128Z,1
2022-07-26T23:18:03.165Z,1
2022-07-26T23:20:04.892Z,1
2022-07-26T23:22:03.288Z,1
2022-07-26T23:24:09.591Z,1
2022-07-26T23:26:02.999Z,1
2022-07-26T23:30:03.359Z,1
2022-07-26T23:32:06.398Z,1
2022-07-26T23:34:06.757Z,1
2022-07-26T23:36:06.197Z,1
2022-07-26T23:38:02.913Z,1
2022-07-26T23:40:03.256Z,1
2022-07-26T23:42:02.975Z,1
2022-07-26T23:44:03.322Z,1
2022-07-26T23:46:04.304Z,1
2022-07-26T23:48:02.905Z,1
2022-07-26T23:50:04.054Z,1
2022-07-26T23:52:02.904Z,1
2022-07-26T23:54:10.401Z,1
2022-07-26T23:56:03.185Z,1
2022-07-26T23:58:02.921Z,1
